Time;durP1;ratioP1;P1;durP2;ratioP2;P2;SDS_P1;SDS_P2;PMS_P1;PMS_P2;Temp;Humidity;BMP_temperature;BMP_pressure;BME280_temperature;BME280_humidity;BME280_pressure;Samples;Min_cycle;Max_cycle;Signal;HPM_P1;HPM_P2
2021/06/16 00:01:58;;;;;;;8.18;2.00;;;17.20;99.90;;;;;;4993448;28;20080;-73
2021/06/16 00:04:24;;;;;;;5.28;1.80;;;17.10;99.90;;;;;;4993810;28;20038;-73
2021/06/16 00:06:51;;;;;;;7.05;1.50;;;17.10;99.90;;;;;;4993435;28;20038;-73
2021/06/16 00:09:17;;;;;;;5.50;2.00;;;17.10;99.90;;;;;;4992917;28;20026;-73
2021/06/16 00:11:43;;;;;;;7.13;2.03;;;17.10;99.90;;;;;;4991587;28;20390;-73
2021/06/16 00:14:08;;;;;;;11.77;2.80;;;17.10;99.90;;;;;;4991762;28;20518;-73
2021/06/16 00:16:35;;;;;;;3.90;2.22;;;17.00;99.90;;;;;;4992768;28;20033;-73
2021/06/16 00:19:01;;;;;;;6.25;1.65;;;17.00;99.90;;;;;;4992640;28;20030;-73
2021/06/16 00:21:27;;;;;;;7.25;1.83;;;17.00;99.90;;;;;;4994106;28;20050;-73
2021/06/16 00:23:53;;;;;;;8.02;2.00;;;16.90;99.90;;;;;;4994653;28;20391;-73
2021/06/16 00:26:19;;;;;;;4.80;1.95;;;16.90;99.90;;;;;;4993420;28;20049;-73
2021/06/16 00:28:45;;;;;;;3.30;1.88;;;16.80;99.90;;;;;;4994378;28;20486;-73
2021/06/16 00:31:11;;;;;;;5.25;1.92;;;16.80;99.90;;;;;;4995383;28;20459;-73
2021/06/16 00:33:36;;;;;;;13.00;1.98;;;16.80;99.90;;;;;;4995594;28;20158;-73
2021/06/16 00:36:02;;;;;;;4.53;2.22;;;16.80;99.90;;;;;;4993657;28;20050;-74
2021/06/16 00:38:28;;;;;;;3.83;2.10;;;16.80;99.90;;;;;;4995364;28;20147;-74
2021/06/16 00:40:55;;;;;;;11.63;3.28;;;16.80;99.90;;;;;;4995832;28;20027;-73
2021/06/16 00:43:20;;;;;;;6.50;2.33;;;16.70;99.90;;;;;;4993920;28;20045;-74
2021/06/16 00:45:48;;;;;;;7.10;2.58;;;16.70;99.90;;;;;;4995671;28;20026;-74
2021/06/16 00:48:13;;;;;;;4.60;2.55;;;16.70;99.90;;;;;;4995507;28;20035;-74
2021/06/16 00:50:40;;;;;;;4.78;1.90;;;16.70;99.90;;;;;;4994215;28;20430;-74
2021/06/16 00:53:07;;;;;;;5.68;2.10;;;16.70;99.90;;;;;;4993904;28;20414;-74
2021/06/16 00:55:39;;;;;;;4.28;2.30;;;16.70;99.90;;;;;;4994928;28;20026;-74
2021/06/16 00:58:11;;;;;;;9.27;2.30;;;16.70;99.90;;;;;;4995330;28;20130;-74
2021/06/16 01:01:06;;;;;;;8.10;3.22;;;16.70;99.90;;;;;;4995688;28;20382;-74
2021/06/16 01:03:42;;;;;;;8.68;2.67;;;16.60;99.90;;;;;;4994213;28;20077;-74
2021/06/16 01:06:25;;;;;;;9.30;3.42;;;16.60;99.90;;;;;;4995430;28;20043;-74
2021/06/16 01:09:06;;;;;;;7.22;2.53;;;16.50;99.90;;;;;;4983300;28;20030;-73
2021/06/16 01:11:43;;;;;;;9.25;2.90;;;16.50;99.90;;;;;;4993905;28;20039;-74
2021/06/16 01:14:13;;;;;;;5.67;2.60;;;16.50;99.90;;;;;;4994741;28;20030;-74
2021/06/16 01:16:46;;;;;;;4.90;2.30;;;16.50;99.90;;;;;;4993663;28;20277;-74
2021/06/16 01:19:44;;;;;;;6.95;2.20;;;16.50;99.90;;;;;;4995943;28;20551;-74
2021/06/16 01:22:51;;;;;;;8.52;2.58;;;16.50;99.90;;;;;;4985293;28;20030;-74
2021/06/16 01:25:52;;;;;;;2.95;1.90;;;16.40;99.90;;;;;;4990320;28;20078;-74
2021/06/16 01:28:20;;;;;;;4.03;3.08;;;16.40;99.90;;;;;;4989744;28;20085;-73
2021/06/16 01:30:48;;;;;;;9.18;2.38;;;16.40;99.90;;;;;;4995891;28;20027;-73
2021/06/16 01:33:17;;;;;;;5.68;2.40;;;16.40;99.90;;;;;;4994236;28;20050;-74
2021/06/16 01:35:50;;;;;;;6.35;2.83;;;16.40;99.90;;;;;;4995188;28;20105;-74
2021/06/16 01:38:17;;;;;;;6.75;2.28;;;16.50;99.90;;;;;;4994935;28;20034;-73
2021/06/16 01:40:46;;;;;;;8.93;2.33;;;16.50;99.90;;;;;;4995258;28;20046;-73
2021/06/16 01:43:12;;;;;;;4.78;2.47;;;16.50;99.90;;;;;;4994693;28;20032;-74
2021/06/16 01:45:39;;;;;;;11.48;2.90;;;16.50;99.90;;;;;;4994410;28;20038;-73
2021/06/16 01:48:08;;;;;;;13.68;3.25;;;16.50;99.90;;;;;;4995342;28;20383;-74
2021/06/16 01:50:35;;;;;;;7.18;2.92;;;16.50;99.90;;;;;;4994773;28;20387;-73
2021/06/16 01:53:01;;;;;;;5.75;2.75;;;16.50;99.90;;;;;;4989789;28;20506;-73
2021/06/16 01:55:27;;;;;;;5.55;2.40;;;16.40;99.90;;;;;;4994873;28;20109;-74
2021/06/16 01:57:56;;;;;;;9.10;2.72;;;16.40;99.90;;;;;;4993765;28;20050;-73
2021/06/16 02:00:23;;;;;;;5.85;2.50;;;16.30;99.90;;;;;;4994909;28;20026;-73
2021/06/16 02:02:50;;;;;;;8.75;4.05;;;16.30;99.90;;;;;;4995013;28;20030;-73
2021/06/16 02:05:19;;;;;;;8.23;2.60;;;16.30;99.90;;;;;;4994041;28;20550;-73
2021/06/16 02:07:56;;;;;;;7.15;2.60;;;16.20;99.90;;;;;;4994268;28;20023;-73
2021/06/16 02:10:27;;;;;;;8.50;2.78;;;16.20;99.90;;;;;;4995297;28;20431;-73
2021/06/16 02:12:57;;;;;;;21.92;3.33;;;16.20;99.90;;;;;;4994157;28;20116;-73
2021/06/16 02:15:27;;;;;;;9.20;3.05;;;16.20;99.90;;;;;;4994367;28;20501;-73
2021/06/16 02:17:55;;;;;;;10.35;3.55;;;16.20;99.90;;;;;;4992882;28;20045;-74
2021/06/16 02:20:21;;;;;;;14.30;3.17;;;16.20;99.90;;;;;;4994562;28;20042;-74
2021/06/16 02:22:48;;;;;;;9.65;3.83;;;16.20;99.90;;;;;;4994106;28;20081;-74
2021/06/16 02:25:16;;;;;;;6.25;3.20;;;16.20;99.90;;;;;;4993668;28;20055;-74
2021/06/16 02:27:42;;;;;;;7.05;3.30;;;16.20;99.90;;;;;;4992576;28;20058;-74
2021/06/16 02:30:09;;;;;;;8.25;2.95;;;16.20;99.90;;;;;;4992783;28;20420;-73
2021/06/16 02:32:36;;;;;;;10.88;2.70;;;16.20;99.90;;;;;;4992659;28;20089;-73
2021/06/16 02:35:02;;;;;;;8.55;2.88;;;16.10;99.90;;;;;;4992364;28;20038;-73
2021/06/16 02:37:30;;;;;;;10.07;2.70;;;16.10;99.90;;;;;;4993938;28;20077;-74
2021/06/16 02:40:01;;;;;;;6.50;2.90;;;16.10;99.90;;;;;;4993559;28;20038;-74
2021/06/16 02:42:27;;;;;;;10.30;3.70;;;16.00;99.90;;;;;;4994083;28;20077;-74
2021/06/16 02:44:53;;;;;;;7.38;2.95;;;16.00;99.90;;;;;;4993928;28;20073;-74
2021/06/16 02:47:20;;;;;;;9.10;2.75;;;16.00;99.90;;;;;;4993881;28;20026;-74
2021/06/16 02:49:53;;;;;;;4.85;2.83;;;15.90;99.90;;;;;;4992738;28;20030;-73
2021/06/16 02:52:19;;;;;;;6.07;2.78;;;15.90;99.90;;;;;;4993532;28;20471;-73
2021/06/16 02:54:51;;;;;;;9.88;2.88;;;15.90;99.90;;;;;;4993961;28;20069;-73
2021/06/16 02:57:22;;;;;;;7.82;2.95;;;15.90;99.90;;;;;;4994135;28;20376;-73
2021/06/16 02:59:50;;;;;;;8.00;2.60;;;15.90;99.90;;;;;;4993702;28;20033;-74
2021/06/16 03:02:19;;;;;;;5.75;2.50;;;15.80;99.90;;;;;;4992067;28;20483;-73
2021/06/16 03:04:47;;;;;;;7.53;3.38;;;15.80;99.90;;;;;;4992935;28;20506;-72
2021/06/16 03:07:14;;;;;;;8.90;3.30;;;15.80;99.90;;;;;;4991102;28;20410;-73
2021/06/16 03:09:40;;;;;;;;;;;15.80;99.90;;;;;;4994552;28;20026;-73
2021/06/16 03:12:07;;;;;;;9.23;3.08;;;15.80;99.90;;;;;;4992027;28;19909;-73
2021/06/16 03:14:33;;;;;;;6.18;2.70;;;15.80;99.90;;;;;;4993493;28;20108;-73
2021/06/16 03:17:00;;;;;;;4.13;2.92;;;15.80;99.90;;;;;;4993960;28;20031;-73
2021/06/16 03:19:26;;;;;;;7.97;2.95;;;15.70;99.90;;;;;;4993326;28;20026;-73
2021/06/16 03:21:53;;;;;;;5.60;3.20;;;15.70;99.90;;;;;;4992021;28;20455;-73
2021/06/16 03:24:21;;;;;;;6.37;3.03;;;15.70;99.90;;;;;;5008840;28;20034;-73
2021/06/16 03:26:47;;;;;;;;;;;15.70;99.90;;;;;;4992492;28;20325;-73
2021/06/16 03:29:13;;;;;;;3.85;2.72;;;15.70;99.90;;;;;;4992648;28;19921;-73
2021/06/16 03:31:43;;;;;;;6.03;2.80;;;15.70;99.90;;;;;;4991480;28;20015;-74
2021/06/16 03:34:09;;;;;;;7.05;3.15;;;15.80;99.90;;;;;;4992074;28;20022;-73
2021/06/16 03:36:37;;;;;;;3.15;2.47;;;15.80;99.90;;;;;;4992459;28;20027;-74
2021/06/16 03:39:05;;;;;;;7.68;2.83;;;15.80;99.90;;;;;;4991456;28;20518;-74
2021/06/16 03:41:31;;;;;;;7.82;3.85;;;15.80;99.90;;;;;;4992209;28;20502;-74
2021/06/16 03:43:57;;;;;;;10.82;3.78;;;15.80;99.90;;;;;;4993656;28;20034;-73
2021/06/16 03:46:23;;;;;;;8.55;3.03;;;15.80;99.90;;;;;;4993162;28;20467;-74
2021/06/16 03:48:53;;;;;;;11.05;3.05;;;15.80;99.90;;;;;;4989604;28;20050;-74
2021/06/16 03:51:19;;;;;;;5.38;2.60;;;15.80;99.90;;;;;;4992828;28;20033;-74
2021/06/16 03:53:47;;;;;;;8.00;2.50;;;15.90;99.90;;;;;;4992413;28;20022;-74
2021/06/16 03:56:13;;;;;;;4.53;2.67;;;15.90;99.90;;;;;;4995655;28;20117;-74
2021/06/16 03:58:42;;;;;;;5.15;2.67;;;15.90;99.90;;;;;;4997239;28;20105;-74
2021/06/16 04:01:14;;;;;;;6.65;2.65;;;15.90;99.90;;;;;;4996138;28;20129;-73
2021/06/16 04:03:41;;;;;;;9.80;3.40;;;15.90;99.90;;;;;;4996694;28;20030;-74
2021/06/16 04:06:07;;;;;;;6.45;3.05;;;15.90;99.90;;;;;;4996145;28;20045;-74
2021/06/16 04:08:35;;;;;;;7.40;2.90;;;15.90;99.90;;;;;;4983162;28;20038;-74
2021/06/16 04:11:01;;;;;;;7.60;2.85;;;15.90;99.90;;;;;;4996653;28;20018;-73
2021/06/16 04:13:27;;;;;;;7.72;2.72;;;15.90;99.90;;;;;;4996739;28;20356;-73
2021/06/16 04:15:53;;;;;;;9.80;3.05;;;16.00;99.90;;;;;;4996213;28;20035;-74
2021/06/16 04:18:18;;;;;;;6.40;2.92;;;16.00;99.90;;;;;;4996989;28;20065;-74
2021/06/16 04:20:44;;;;;;;13.80;3.03;;;16.10;99.90;;;;;;4996605;28;20049;-73
2021/06/16 04:23:10;;;;;;;10.77;3.33;;;16.10;99.90;;;;;;4996780;28;20455;-73
2021/06/16 04:25:36;;;;;;;4.90;2.78;;;16.10;99.90;;;;;;4996546;28;20065;-74
2021/06/16 04:28:02;;;;;;;6.78;2.67;;;16.20;99.90;;;;;;4996489;28;20106;-73
2021/06/16 04:30:28;;;;;;;3.97;2.58;;;16.20;99.90;;;;;;4996108;28;20030;-73
2021/06/16 04:32:54;;;;;;;7.32;2.75;;;16.40;99.90;;;;;;4996351;28;20371;-74
2021/06/16 04:35:20;;;;;;;5.47;2.67;;;16.50;99.90;;;;;;4996127;28;20022;-74
2021/06/16 04:37:46;;;;;;;10.90;2.78;;;16.50;99.90;;;;;;4995949;28;20383;-74
2021/06/16 04:40:13;;;;;;;15.38;3.92;;;16.60;99.90;;;;;;4994805;28;20474;-74
2021/06/16 04:42:38;;;;;;;11.00;2.90;;;16.70;99.90;;;;;;4995595;28;20030;-74
2021/06/16 04:45:05;;;;;;;9.45;2.95;;;16.70;99.90;;;;;;4995333;28;20045;-74
2021/06/16 04:47:32;;;;;;;3.90;2.20;;;16.80;99.90;;;;;;4995812;28;20047;-74
2021/06/16 04:49:58;;;;;;;6.97;2.40;;;17.00;99.90;;;;;;4995848;28;20281;-73
2021/06/16 04:52:23;;;;;;;11.13;3.42;;;17.10;99.90;;;;;;4995974;28;20042;-74
2021/06/16 04:54:49;;;;;;;10.65;2.38;;;17.30;99.90;;;;;;4993704;28;20038;-74
2021/06/16 04:57:15;;;;;;;10.80;3.38;;;17.50;99.90;;;;;;4993255;28;20043;-74
2021/06/16 04:59:40;;;;;;;9.15;3.17;;;17.60;99.90;;;;;;4996047;28;20042;-74
2021/06/16 05:02:06;;;;;;;7.88;3.22;;;17.80;99.90;;;;;;4995153;28;20462;-74
2021/06/16 05:04:31;;;;;;;7.95;2.72;;;17.90;99.90;;;;;;4996974;28;20027;-74
2021/06/16 05:06:57;;;;;;;7.18;2.60;;;18.00;99.90;;;;;;4994172;28;20467;-74
2021/06/16 05:09:23;;;;;;;4.05;2.58;;;18.10;99.90;;;;;;4984460;28;20531;-75
2021/06/16 05:11:49;;;;;;;15.27;2.97;;;18.20;99.90;;;;;;4996173;28;20054;-74
2021/06/16 05:14:15;;;;;;;6.95;2.58;;;18.20;99.90;;;;;;4995042;28;20026;-74
2021/06/16 05:16:41;;;;;;;7.57;2.72;;;18.40;99.90;;;;;;4995383;28;20029;-73
2021/06/16 05:19:14;;;;;;;3.55;2.10;;;18.40;99.90;;;;;;4996022;28;20026;-74
2021/06/16 05:21:41;;;;;;;4.35;2.83;;;18.50;99.90;;;;;;4995472;28;20033;-74
2021/06/16 05:24:07;;;;;;;13.88;2.80;;;18.60;99.90;;;;;;5005923;28;20030;-74
2021/06/16 05:26:32;;;;;;;16.10;2.95;;;18.70;99.90;;;;;;4996359;28;20390;-74
2021/06/16 05:28:58;;;;;;;6.93;2.17;;;18.80;99.90;;;;;;4992997;28;20025;-74
2021/06/16 05:31:23;;;;;;;8.98;2.60;;;19.00;99.90;;;;;;5003592;28;20030;-75
2021/06/16 05:33:49;;;;;;;12.73;2.10;;;19.10;99.90;;;;;;4999739;28;20112;-73
2021/06/16 05:36:15;;;;;;;6.80;2.78;;;19.20;99.90;;;;;;5008428;28;20025;-73
2021/06/16 05:38:40;;;;;;;5.50;2.60;;;19.20;99.90;;;;;;4996596;28;20026;-74
2021/06/16 05:41:06;;;;;;;4.97;2.63;;;19.40;99.90;;;;;;5004549;28;20383;-74
2021/06/16 05:43:32;;;;;;;10.73;2.72;;;19.50;99.90;;;;;;5002919;28;20034;-75
2021/06/16 05:45:58;;;;;;;9.77;2.67;;;19.60;99.70;;;;;;4996750;28;20390;-75
2021/06/16 05:48:23;;;;;;;11.00;2.75;;;19.80;99.60;;;;;;4996469;28;20522;-75
2021/06/16 05:50:49;;;;;;;11.68;2.90;;;19.90;99.30;;;;;;4995859;28;20153;-75
2021/06/16 05:53:15;;;;;;;8.65;2.28;;;20.00;99.30;;;;;;4993917;28;20101;-76
2021/06/16 05:55:40;;;;;;;12.18;3.33;;;20.00;99.20;;;;;;4995602;28;20030;-75
2021/06/16 05:58:06;;;;;;;14.60;2.35;;;20.20;99.20;;;;;;5000652;28;20030;-74
2021/06/16 06:00:31;;;;;;;7.72;3.03;;;20.40;99.20;;;;;;4999952;28;20526;-75
2021/06/16 06:02:57;;;;;;;8.63;2.72;;;20.70;98.80;;;;;;4996289;28;20022;-73
2021/06/16 06:05:23;;;;;;;8.27;2.58;;;21.00;98.20;;;;;;5002135;28;20054;-75
2021/06/16 06:07:48;;;;;;;9.20;2.65;;;21.60;97.90;;;;;;5006530;28;20475;-75
2021/06/16 06:10:14;;;;;;;11.98;2.30;;;22.40;96.90;;;;;;4998784;28;20117;-75
2021/06/16 06:12:40;;;;;;;5.38;2.25;;;23.40;96.00;;;;;;4998464;28;20028;-75
2021/06/16 06:15:06;;;;;;;10.43;2.28;;;24.50;94.50;;;;;;4997528;28;20027;-75
2021/06/16 06:17:33;;;;;;;4.82;2.00;;;25.10;93.60;;;;;;4995381;28;20057;-75
2021/06/16 06:19:59;;;;;;;5.65;1.90;;;26.10;92.80;;;;;;4997625;28;20038;-75
2021/06/16 06:22:24;;;;;;;10.13;2.13;;;27.60;91.20;;;;;;5016795;28;20670;-75
2021/06/16 06:24:50;;;;;;;7.45;1.92;;;28.80;89.90;;;;;;5011608;28;20398;-75
2021/06/16 06:27:15;;;;;;;3.42;1.88;;;29.70;88.00;;;;;;5012835;28;20030;-75
2021/06/16 06:29:41;;;;;;;11.45;2.08;;;30.40;86.80;;;;;;5013744;28;20015;-74
2021/06/16 06:32:07;;;;;;;5.47;1.85;;;30.80;84.80;;;;;;5014208;28;20053;-75
2021/06/16 06:34:32;;;;;;;8.48;2.10;;;31.20;84.30;;;;;;5013895;28;20045;-75
2021/06/16 06:36:58;;;;;;;6.05;2.33;;;31.80;82.90;;;;;;5013996;28;20069;-75
2021/06/16 06:39:23;;;;;;;8.45;2.83;;;31.60;81.70;;;;;;5012634;28;20021;-75
2021/06/16 06:41:49;;;;;;;5.82;2.50;;;32.10;81.70;;;;;;5011697;28;20098;-75
2021/06/16 06:44:15;;;;;;;11.63;3.03;;;32.30;80.40;;;;;;5014955;28;20026;-75
2021/06/16 06:46:41;;;;;;;5.50;2.67;;;32.00;80.00;;;;;;5013338;28;20034;-77
2021/06/16 06:49:06;;;;;;;4.63;1.77;;;31.90;80.30;;;;;;5013828;28;20054;-75
2021/06/16 06:51:32;;;;;;;9.50;1.92;;;31.80;80.10;;;;;;5014195;28;20030;-76
2021/06/16 06:53:57;;;;;;;6.38;2.08;;;31.80;80.40;;;;;;5014726;28;20037;-76
2021/06/16 06:56:23;;;;;;;5.60;2.05;;;31.90;80.00;;;;;;5015145;28;20024;-75
2021/06/16 06:58:49;;;;;;;9.05;2.03;;;31.70;79.20;;;;;;5014693;28;20017;-75
2021/06/16 07:01:14;;;;;;;10.50;2.33;;;30.80;81.00;;;;;;5014267;28;20136;-75
2021/06/16 07:03:40;;;;;;;4.60;1.65;;;29.50;81.60;;;;;;5015168;28;20059;-75
2021/06/16 07:06:06;;;;;;;7.90;1.95;;;28.10;83.70;;;;;;5012171;28;20054;-76
2021/06/16 07:08:32;;;;;;;7.60;2.40;;;27.10;85.10;;;;;;5013783;28;20035;-74
2021/06/16 07:10:57;;;;;;;8.43;1.73;;;26.60;86.00;;;;;;5014305;28;20026;-75
2021/06/16 07:13:23;;;;;;;7.13;2.53;;;26.50;87.40;;;;;;5014743;28;20010;-75
2021/06/16 07:15:49;;;;;;;4.55;1.63;;;27.00;87.00;;;;;;5015808;28;20066;-76
2021/06/16 07:18:15;;;;;;;6.85;1.88;;;27.60;86.30;;;;;;5010354;28;20053;-75
2021/06/16 07:20:40;;;;;;;3.58;1.75;;;28.00;85.40;;;;;;5015473;28;20042;-75
2021/06/16 07:23:06;;;;;;;6.78;2.30;;;28.70;84.50;;;;;;5009232;28;20022;-76
2021/06/16 07:25:32;;;;;;;3.90;1.92;;;29.40;83.60;;;;;;5007992;28;20057;-76
2021/06/16 07:27:57;;;;;;;5.32;1.90;;;30.10;81.50;;;;;;5014742;28;20094;-77
2021/06/16 07:30:23;;;;;;;4.38;1.55;;;30.00;80.90;;;;;;5012072;28;20037;-75
2021/06/16 07:32:49;;;;;;;4.40;1.98;;;30.20;81.50;;;;;;5015681;28;20037;-75
2021/06/16 07:35:16;;;;;;;5.53;1.67;;;30.00;80.70;;;;;;5014413;28;20026;-76
2021/06/16 07:37:42;;;;;;;8.00;2.08;;;29.80;81.40;;;;;;5015889;28;20035;-75
2021/06/16 07:40:09;;;;;;;5.13;1.77;;;29.60;82.00;;;;;;5014899;28;20030;-75
2021/06/16 07:42:36;;;;;;;4.43;1.40;;;29.40;82.20;;;;;;5015472;28;20042;-75
2021/06/16 07:45:04;;;;;;;4.75;1.27;;;29.30;82.50;;;;;;5015874;28;20029;-76
2021/06/16 07:47:30;;;;;;;2.50;1.33;;;29.20;83.50;;;;;;5015571;28;20034;-75
2021/06/16 07:49:55;;;;;;;7.97;1.70;;;29.00;83.40;;;;;;5015830;28;20062;-75
2021/06/16 07:52:21;;;;;;;2.53;1.75;;;28.90;83.40;;;;;;5015792;28;20038;-76
2021/06/16 07:54:47;;;;;;;3.63;1.50;;;28.70;82.90;;;;;;5015192;28;20014;-76
2021/06/16 07:57:12;;;;;;;3.58;1.80;;;28.50;82.60;;;;;;5016525;28;20023;-76
2021/06/16 07:59:38;;;;;;;6.32;1.85;;;28.40;82.40;;;;;;5015128;28;20046;-77
2021/06/16 08:02:05;;;;;;;6.40;1.70;;;28.10;82.60;;;;;;5015253;28;20026;-76
2021/06/16 08:04:31;;;;;;;3.17;1.60;;;27.80;83.40;;;;;;5015792;28;20093;-76
2021/06/16 08:06:57;;;;;;;3.58;1.83;;;27.60;84.00;;;;;;5016562;28;20035;-76
2021/06/16 08:09:23;;;;;;;6.72;1.90;;;27.60;84.30;;;;;;5024676;28;20014;-75
2021/06/16 08:11:50;;;;;;;3.25;1.85;;;27.70;84.70;;;;;;5015999;28;20026;-76
2021/06/16 08:14:15;;;;;;;;;;;27.90;83.90;;;;;;5017120;28;20014;-74
2021/06/16 08:16:41;;;;;;;4.43;1.37;;;28.10;83.50;;;;;;5014783;28;19974;-76
2021/06/16 08:19:07;;;;;;;5.82;1.60;;;28.30;84.50;;;;;;5017063;28;20015;-74
2021/06/16 08:21:32;;;;;;;4.63;1.92;;;28.60;84.20;;;;;;5016109;28;20035;-76
2021/06/16 08:23:58;;;;;;;2.08;1.40;;;29.00;83.20;;;;;;5016660;28;20030;-75
2021/06/16 08:26:24;;;;;;;29.45;3.95;;;29.20;82.80;;;;;;5014091;28;20062;-74
2021/06/16 08:28:49;;;;;;;3.72;1.58;;;29.40;82.50;;;;;;5015619;28;20030;-75
2021/06/16 08:31:15;;;;;;;4.43;2.20;;;29.40;81.90;;;;;;5013629;28;20041;-75
2021/06/16 08:33:41;;;;;;;2.92;1.88;;;29.40;82.00;;;;;;5013756;28;20021;-74
2021/06/16 08:36:08;;;;;;;2.80;2.13;;;29.20;81.90;;;;;;5014003;28;20034;-75
2021/06/16 08:38:34;;;;;;;8.13;1.90;;;29.00;82.50;;;;;;5009866;28;20045;-73
2021/06/16 08:41:05;;;;;;;4.35;1.80;;;29.10;82.20;;;;;;5009339;28;20018;-74
2021/06/16 08:43:45;;;;;;;4.63;2.22;;;29.40;82.80;;;;;;5013957;28;20015;-74
2021/06/16 08:46:13;;;;;;;5.78;2.00;;;29.60;82.90;;;;;;5005256;28;20388;-75
2021/06/16 08:48:40;;;;;;;2.53;2.22;;;29.90;82.10;;;;;;5004820;28;20086;-75
2021/06/16 08:51:06;;;;;;;;;;;30.00;80.80;;;;;;5020520;28;20034;-75
2021/06/16 08:53:33;;;;;;;7.20;2.08;;;30.20;80.70;;;;;;5017430;28;19918;-73
2021/06/16 08:55:59;;;;;;;2.95;1.92;;;30.40;80.60;;;;;;5025100;28;20030;-73
2021/06/16 08:58:24;;;;;;;3.20;1.80;;;30.80;80.60;;;;;;5013050;28;20061;-73
2021/06/16 09:00:50;;;;;;;4.83;2.67;;;31.00;80.10;;;;;;5014558;28;20034;-79
2021/06/16 09:03:16;;;;;;;6.10;2.33;;;31.20;79.90;;;;;;5015426;28;20050;-71
2021/06/16 09:05:42;;;;;;;14.03;3.03;;;31.40;79.20;;;;;;5014941;28;20088;-73
2021/06/16 09:08:23;;;;;;;3.58;2.00;;;31.70;78.70;;;;;;5016314;28;20018;-77
2021/06/16 09:10:54;;;;;;;3.35;2.05;;;32.00;78.50;;;;;;5017579;28;20017;-78
2021/06/16 09:13:31;;;;;;;3.22;1.85;;;32.20;78.10;;;;;;5017976;28;20057;-75
2021/06/16 09:16:01;;;;;;;4.18;2.33;;;32.20;77.90;;;;;;5016086;28;20022;-76
2021/06/16 09:18:41;;;;;;;3.70;2.42;;;32.30;77.00;;;;;;5015516;28;20035;-78
2021/06/16 09:21:07;;;;;;;4.20;2.70;;;31.80;78.00;;;;;;5010833;28;20038;-74
2021/06/16 09:23:32;;;;;;;4.40;2.67;;;31.60;78.20;;;;;;5017114;28;20055;-73
2021/06/16 09:26:15;;;;;;;4.53;2.20;;;31.50;78.40;;;;;;5013851;28;20053;-74
2021/06/16 09:28:51;;;;;;;4.43;2.40;;;31.20;79.40;;;;;;5021976;28;20026;-73
2021/06/16 09:31:18;;;;;;;;;;;30.90;79.60;;;;;;5024513;28;20005;-75
2021/06/16 09:33:45;;;;;;;11.20;3.25;;;30.60;80.20;;;;;;5027772;28;19916;-74
2021/06/16 09:36:15;;;;;;;5.13;2.47;;;30.50;80.30;;;;;;5015933;28;20041;-75
2021/06/16 09:38:45;;;;;;;4.15;2.10;;;30.30;80.70;;;;;;5013156;28;20140;-76
2021/06/16 09:41:12;;;;;;;3.42;2.10;;;30.20;81.30;;;;;;5016236;28;20015;-75
2021/06/16 09:43:39;;;;;;;3.78;2.60;;;30.20;80.80;;;;;;5017420;28;20026;-78
2021/06/16 09:46:10;;;;;;;3.42;2.10;;;30.10;80.60;;;;;;5017770;28;20057;-78
2021/06/16 09:48:43;;;;;;;3.47;2.33;;;29.70;81.90;;;;;;5029265;28;20458;-76
2021/06/16 09:51:35;;;;;;;3.20;2.30;;;29.60;82.20;;;;;;5011627;28;20030;-75
2021/06/16 09:54:16;;;;;;;7.35;2.70;;;29.60;83.30;;;;;;5004825;28;20035;-76
2021/06/16 09:56:53;;;;;;;6.07;2.50;;;29.60;83.50;;;;;;5002779;28;20025;-75
2021/06/16 09:59:37;;;;;;;6.80;1.90;;;29.70;82.40;;;;;;5011651;28;20018;-75
2021/06/16 10:02:03;;;;;;;3.97;1.73;;;29.80;82.20;;;;;;5010476;28;20084;-75
2021/06/16 10:04:42;;;;;;;2.80;1.90;;;30.00;81.60;;;;;;5010194;28;20026;-76
2021/06/16 10:07:18;;;;;;;4.53;2.08;;;30.50;81.70;;;;;;5004964;28;20483;-76
2021/06/16 10:10:02;;;;;;;5.93;2.42;;;30.80;81.50;;;;;;4997862;28;20122;-76
2021/06/16 10:12:40;;;;;;;3.33;2.35;;;31.50;80.00;;;;;;4986588;28;20026;-77
2021/06/16 10:15:18;;;;;;;6.68;2.30;;;32.00;79.10;;;;;;4992724;28;20034;-78
2021/06/16 10:17:45;;;;;;;4.75;2.20;;;32.50;77.70;;;;;;4996704;28;20030;-75
2021/06/16 10:20:14;;;;;;;2.75;2.00;;;32.20;78.60;;;;;;4997961;28;20626;-76
2021/06/16 10:22:40;;;;;;;7.05;2.55;;;32.20;78.70;;;;;;4996201;28;20026;-75
2021/06/16 10:25:06;;;;;;;3.63;2.07;;;31.50;79.30;;;;;;4997963;28;20038;-75
2021/06/16 10:27:37;;;;;;;3.65;1.85;;;30.90;81.10;;;;;;4999230;28;20339;-76
2021/06/16 10:30:09;;;;;;;2.28;1.90;;;31.20;79.40;;;;;;4997463;28;20022;-76
2021/06/16 10:32:42;;;;;;;4.10;1.98;;;31.60;79.60;;;;;;4995751;28;20038;-74
2021/06/16 10:35:10;;;;;;;6.07;1.85;;;32.00;78.60;;;;;;4995290;28;20038;-75
2021/06/16 10:37:43;;;;;;;3.17;1.90;;;31.80;78.60;;;;;;4992829;28;20371;-76
2021/06/16 10:40:21;;;;;;;2.97;1.83;;;32.00;79.00;;;;;;4994023;28;20030;-74
2021/06/16 10:43:02;;;;;;;7.05;2.92;;;32.10;78.40;;;;;;4998494;28;20037;-76
2021/06/16 10:45:46;;;;;;;1.77;1.63;;;32.20;78.80;;;;;;4994724;28;20030;-75
2021/06/16 10:48:12;;;;;;;3.25;2.10;;;31.60;78.80;;;;;;4993583;28;20533;-73
2021/06/16 10:50:47;;;;;;;4.27;1.80;;;31.80;77.50;;;;;;4993959;28;20026;-75
2021/06/16 10:53:21;;;;;;;6.97;2.90;;;32.00;78.40;;;;;;4985107;28;20053;-75
2021/06/16 10:55:53;;;;;;;4.18;2.35;;;32.10;77.50;;;;;;4995665;28;20434;-74
2021/06/16 10:58:27;;;;;;;2.88;2.00;;;32.00;78.90;;;;;;4993654;28;20475;-74
2021/06/16 11:01:12;;;;;;;3.72;2.40;;;32.00;78.30;;;;;;4994259;28;20129;-75
2021/06/16 11:03:47;;;;;;;3.47;2.40;;;31.60;78.50;;;;;;4984529;28;20085;-74
2021/06/16 11:06:34;;;;;;;5.28;2.28;;;31.10;79.40;;;;;;4986471;28;20050;-76
2021/06/16 11:09:01;;;;;;;2.80;2.20;;;30.80;80.10;;;;;;4990427;28;20018;-75
2021/06/16 11:11:47;;;;;;;6.45;2.88;;;30.50;79.50;;;;;;4991804;28;20039;-74
2021/06/16 11:14:34;;;;;;;4.97;2.33;;;30.30;80.80;;;;;;4988775;28;20035;-75
2021/06/16 11:17:01;;;;;;;4.15;2.63;;;30.00;80.70;;;;;;4993778;28;20030;-76
2021/06/16 11:19:54;;;;;;;5.05;2.97;;;29.70;81.80;;;;;;4991959;28;20026;-75
2021/06/16 11:22:20;;;;;;;3.80;2.55;;;29.60;82.50;;;;;;4994138;28;20030;-76
2021/06/16 11:25:10;;;;;;;5.90;2.35;;;29.70;82.80;;;;;;4993970;28;20038;-76
2021/06/16 11:27:54;;;;;;;3.28;2.78;;;30.00;84.00;;;;;;4992663;28;20077;-73
2021/06/16 11:30:40;;;;;;;8.00;2.53;;;30.10;83.70;;;;;;4993758;28;20029;-74
2021/06/16 11:33:12;;;;;;;3.78;2.92;;;30.10;83.20;;;;;;4993489;28;20049;-73
2021/06/16 11:35:46;;;;;;;3.58;3.28;;;30.20;83.10;;;;;;4984416;28;20034;-73
2021/06/16 11:38:34;;;;;;;2.65;2.30;;;30.20;82.30;;;;;;4992852;28;20454;-75
2021/06/16 11:41:19;;;;;;;6.35;2.80;;;30.20;83.70;;;;;;5007446;28;20138;-78
2021/06/16 11:43:55;;;;;;;4.18;2.85;;;30.40;84.10;;;;;;4984763;28;20034;-75
2021/06/16 11:46:27;;;;;;;4.30;2.93;;;30.50;84.10;;;;;;4986798;28;20081;-75
2021/06/16 11:49:00;;;;;;;5.05;3.92;;;30.50;83.80;;;;;;4988580;28;20390;-74
2021/06/16 11:51:48;;;;;;;6.80;4.00;;;30.50;82.80;;;;;;4980238;28;20031;-79
2021/06/16 11:56:53;;;;;;;9.43;4.25;;;30.50;84.00;;;;;;4993425;28;20034;-79
2021/06/16 11:59:41;;;;;;;7.78;3.53;;;30.50;82.60;;;;;;4992960;28;20023;-78
2021/06/16 12:02:10;;;;;;;4.60;2.92;;;30.50;84.10;;;;;;4990358;28;20023;-78
2021/06/16 12:04:54;;;;;;;9.80;3.35;;;30.60;84.30;;;;;;4992141;28;20482;-79
2021/06/16 12:07:41;;;;;;;5.80;3.38;;;30.80;83.70;;;;;;4992132;28;20152;-79
2021/06/16 12:10:14;;;;;;;10.48;4.00;;;31.00;83.10;;;;;;4990319;28;20427;-78
2021/06/16 12:12:54;;;;;;;4.72;3.60;;;31.20;82.50;;;;;;4992395;28;20446;-78
2021/06/16 12:15:22;;;;;;;8.63;4.28;;;31.10;82.90;;;;;;4992098;28;20026;-79
2021/06/16 12:18:05;;;;;;;7.15;3.40;;;31.30;81.90;;;;;;4992312;28;20049;-78
2021/06/16 12:20:39;;;;;;;4.15;3.35;;;31.10;83.60;;;;;;5011361;28;20033;-78
2021/06/16 12:23:40;;;;;;;5.53;3.25;;;31.20;84.00;;;;;;4997372;28;20028;-79
2021/06/16 12:26:14;;;;;;;14.07;5.25;;;31.40;83.50;;;;;;4974818;28;20057;-78
2021/06/16 12:28:47;;;;;;;7.95;3.33;;;31.60;82.40;;;;;;4993238;28;20030;-78
2021/06/16 12:31:19;;;;;;;6.45;3.35;;;31.70;83.40;;;;;;4992366;28;20121;-78
2021/06/16 12:36:25;;;;;;;9.68;4.80;;;31.60;82.00;;;;;;4997210;28;20034;-78
2021/06/16 12:39:16;;;;;;;4.82;3.47;;;31.30;83.00;;;;;;4995130;28;20128;-78
2021/06/16 12:41:51;;;;;;;6.85;3.95;;;30.90;84.10;;;;;;4994374;28;20022;-78
2021/06/16 12:44:24;;;;;;;9.82;4.00;;;30.50;83.80;;;;;;4995239;28;20034;-79
2021/06/16 12:47:03;;;;;;;14.43;4.00;;;30.50;84.70;;;;;;4997514;28;20026;-78
2021/06/16 12:49:37;;;;;;;8.85;4.85;;;30.70;84.30;;;;;;4996653;28;20491;-78
2021/06/16 12:52:08;;;;;;;8.20;4.78;;;30.90;84.20;;;;;;4996415;28;20042;-79
2021/06/16 12:54:40;;;;;;;4.28;3.80;;;31.10;83.40;;;;;;4995907;28;20031;-78
2021/06/16 12:57:19;;;;;;;8.57;4.63;;;31.10;83.00;;;;;;4996101;28;20034;-78
2021/06/16 12:59:53;;;;;;;8.63;4.05;;;30.80;83.20;;;;;;4996302;28;20026;-78
2021/06/16 13:02:34;;;;;;;8.88;3.75;;;30.50;85.20;;;;;;4996450;28;20038;-79
2021/06/16 13:05:05;;;;;;;10.00;4.88;;;30.60;84.50;;;;;;4995749;28;20053;-78